This is the latest recevied weather packets stored in our database for station/object SP6TSE-13. If no packets are shown the sender has not sent any weather packets the latest 10 day(s).
| Time | Temp. | Humidity | Pressure | Rain* | Wind** | Luminosity | Snow |
|---|---|---|---|---|---|---|---|
| 1777399375 | 13.89° C | 29% | 999.1 hPa | - | - | 0 W/m² | - |
| 1777398175 | 13.89° C | 29% | 999.1 hPa | - | - | 0 W/m² | - |
| 1777388574 | 13.89° C | 28% | 999.9 hPa | - | - | 0 W/m² | - |
| 1777385574 | 13.89° C | 28% | 999.9 hPa | - | - | 0 W/m² | - |
| 1777381974 | 13.89° C | 28% | 999.9 hPa | - | - | 0 W/m² | - |
| 1777378975 | 14.44° C | 28% | 1000 hPa | - | - | 0 W/m² | - |
| 1777375374 | 13.33° C | 32% | 1000.5 hPa | - | - | 0 W/m² | - |
| 1777360374 | 7.22° C | 48% | 1000.6 hPa | - | - | 0 W/m² | - |
| 1777359774 | 7.22° C | 48% | 1000.6 hPa | - | - | 0 W/m² | - |
| 1777356174 | 5.56° C | 52% | 1000.5 hPa | - | - | 0 W/m² | - |
| 1777355574 | 3.33° C | 71% | 999.8 hPa | - | - | 0 W/m² | - |
| 1777354374 | 3.33° C | 71% | 999.8 hPa | - | - | 0 W/m² | - |
| 1777353774 | 3.33° C | 71% | 999.8 hPa | - | - | 0 W/m² | - |
| 1777351974 | 3.33° C | 71% | 999.8 hPa | - | - | 0 W/m² | - |
| 1777340574 | 5.56° C | 69% | 997.2 hPa | - | - | 0 W/m² | - |
| 1777339974 | 5.56° C | 69% | 997.2 hPa | - | - | 0 W/m² | - |
| 1777336374 | 5.56° C | 69% | 997.2 hPa | - | - | 0 W/m² | - |
| 1777333374 | 5.56° C | 69% | 997.2 hPa | - | - | 0 W/m² | - |
| 1777332174 | 5.56° C | 69% | 997.2 hPa | - | - | 0 W/m² | - |
| 1777331574 | 5.56° C | 69% | 997.2 hPa | - | - | 0 W/m² | - |
| 1777328574 | 5° C | 76% | 997.1 hPa | - | - | 0 W/m² | - |
| 1777323174 | 7.78° C | 66% | 997.2 hPa | - | - | 0 W/m² | - |
| 1777318975 | 7.78° C | 66% | 997.2 hPa | - | - | 0 W/m² | - |
| 1777317174 | 9.44° C | 52% | 996.9 hPa | - | - | 0 W/m² | - |
| 1777315974 | 9.44° C | 52% | 996.9 hPa | - | - | 0 W/m² | - |
* Rain since midnight (hover to see other rain measurements)
** Current wind speed in m/s (hover to see current wind gust speed)